Terminal Aerodrome Forecast
Issued by NWS Cleveland, OH

Home | Current Version | Previous Version | Text Only | Print | Product List | Glossary Off
Versions: 1 2 3 4 5 6 7 8 9 10 11 12 13 14 15 16 17 18 19

000
FTUS41 KCLE 202339
TAFTOL
TAF
KTOL 202339Z 2100/2124 VRB05KT 5SM BR OVC015
      TEMPO 2100/2102 3SM -SHRA BR
     FM210300 34005KT P6SM SCT015 OVC040
     FM210900 34005KT P6SM BKN100
     FM211500 32012G20KT P6SM SCT035=

USA.gov is the U.S. government's official web portal to all federal, state and local government web resources and services.